Time;durP1;ratioP1;P1;durP2;ratioP2;P2;SDS_P1;SDS_P2;PMS_P1;PMS_P2;Temp;Humidity;BMP_temperature;BMP_pressure;BME280_temperature;BME280_humidity;BME280_pressure;Samples;Min_cycle;Max_cycle;Signal;HPM_P1;HPM_P2
2022/12/15 00:39:57;;;;;;;;;;;;;;;;;;5065971;28;20012;-50
2022/12/15 00:42:23;;;;;;;;;;;;;;;;;;5066260;28;20694;-51
2022/12/15 00:44:50;;;;;;;;;;;;;;;;;;5066125;28;19978;-51
2022/12/15 00:47:16;;;;;;;;;;;;;;;;;;5066599;28;20019;-53
2022/12/15 01:22:36;;;;;;;;;;;;;;;;;;5063025;28;20483;-52
2022/12/15 01:25:02;;;;;;;;;;;;;;;;;;5065942;28;20457;-51
2022/12/15 01:27:28;;;;;;;;;;;;;;;;;;5064359;28;20333;-58
2022/12/15 01:29:54;;;;;;;;;;;;;;;;;;5065817;28;19925;-51
2022/12/15 01:32:20;;;;;;;;;;;;;;;;;;5065641;28;19936;-52
2022/12/15 01:34:46;;;;;;;;;;;;;;;;;;5065184;28;20376;-49
2022/12/15 01:37:12;;;;;;;;;;;;;;;;;;5063628;28;19930;-49
2022/12/15 01:42:23;;;;;;;;;;;;;;;;;;5065313;28;19966;-47
2022/12/15 01:44:49;;;;;;;;;;;;;;;;;;5060644;28;19985;-53
2022/12/15 01:47:15;;;;;;;;;;;;;;;;;;5065298;28;19977;-48
2022/12/15 01:49:41;;;;;;;;;;;;;;;;;;5065243;28;19929;-54
2022/12/15 01:52:07;;;;;;;;;;;;;;;;;;5061034;28;20455;-50
2022/12/15 01:54:33;;;;;;;;;;;;;;;;;;5065392;28;20309;-51
2022/12/15 01:56:59;;;;;;;;;;;;;;;;;;5064939;28;19925;-54
2022/12/15 01:59:26;;;;;;;;;;;;;;;;;;5065600;28;20366;-51
2022/12/15 02:01:52;;;;;;;;;;;;;;;;;;5065279;28;19924;-56
2022/12/15 02:04:18;;;;;;;;;;;;;;;;;;5061024;28;20366;-49
2022/12/15 02:06:44;;;;;;;;;;;;;;;;;;5064197;28;19925;-52
2022/12/15 02:09:09;;;;;;;;;;;;;;;;;;5065016;28;19966;-56
2022/12/15 02:11:35;;;;;;;;;;;;;;;;;;5064216;28;19924;-52
2022/12/15 02:14:02;;;;;;;;;;;;;;;;;;5065062;28;20371;-50
2022/12/15 02:16:28;;;;;;;;;;;;;;;;;;5065418;28;19931;-49
2022/12/15 02:18:54;;;;;;;;;;;;;;;;;;5065801;28;19932;-47
2022/12/15 02:21:19;;;;;;;;;;;;;;;;;;5064416;28;19928;-52
2022/12/15 02:23:45;;;;;;;;;;;;;;;;;;5064979;28;20304;-53
2022/12/15 02:26:11;;;;;;;;;;;;;;;;;;5065081;28;19932;-48
2022/12/15 02:28:37;;;;;;;;;;;;;;;;;;5064492;28;20010;-48
2022/12/15 02:33:48;;;;;;;;;;;;;;;;;;5059170;28;20037;-53
2022/12/15 02:36:14;;;;;;;;;;;;;;;;;;5064593;28;20048;-49
2022/12/15 02:38:40;;;;;;;;;;;;;;;;;;5064569;28;20370;-51
2022/12/15 02:41:06;;;;;;;;;;;;;;;;;;5064910;28;19932;-53
2022/12/15 02:43:32;;;;;;;;;;;;;;;;;;5064658;28;19924;-53
2022/12/15 02:46:00;;;;;;;;;;;;;;;;;;5065861;28;20468;-49
2022/12/15 02:48:27;;;;;;;;;;;;;;;;;;5068761;28;20388;-51
2022/12/15 02:50:53;;;;;;;;;;;;;;;;;;5067395;28;19924;-52
2022/12/15 02:53:19;;;;;;;;;;;;;;;;;;5068570;28;19928;-52
2022/12/15 02:55:45;;;;;;;;;;;;;;;;;;5067987;28;20277;-55
2022/12/15 02:58:11;;;;;;;;;;;;;;;;;;5067999;28;20404;-47
2022/12/15 03:00:37;;;;;;;;;;;;;;;;;;5067695;28;19924;-53
2022/12/15 03:03:03;;;;;;;;;;;;;;;;;;5067846;28;19924;-56
2022/12/15 03:05:29;;;;;;;;;;;;;;;;;;5066798;28;19987;-53
2022/12/15 03:07:55;;;;;;;;;;;;;;;;;;5068715;28;20027;-49
2022/12/15 03:10:22;;;;;;;;;;;;;;;;;;5067908;28;19999;-56
2022/12/15 03:12:49;;;;;;;;;;;;;;;;;;5067956;28;19925;-56
2022/12/15 03:15:15;;;;;;;;;;;;;;;;;;5068020;28;19920;-47
2022/12/15 03:17:41;;;;;;;;;;;;;;;;;;5067805;28;19924;-48
2022/12/15 03:20:07;;;;;;;;;;;;;;;;;;5067025;28;19990;-48
2022/12/15 03:22:33;;;;;;;;;;;;;;;;;;5067488;28;19924;-51
2022/12/15 03:24:59;;;;;;;;;;;;;;;;;;5067563;28;19971;-54
2022/12/15 03:27:25;;;;;;;;;;;;;;;;;;5068158;28;19946;-50
2022/12/15 03:29:51;;;;;;;;;;;;;;;;;;5067177;28;19924;-49
2022/12/15 03:32:17;;;;;;;;;;;;;;;;;;5067777;28;20016;-51
2022/12/15 03:34:44;;;;;;;;;;;;;;;;;;5067344;28;20031;-53
2022/12/15 03:37:10;;;;;;;;;;;;;;;;;;5066533;28;19939;-56
2022/12/15 03:39:36;;;;;;;;;;;;;;;;;;5067258;28;19928;-48
2022/12/15 03:42:02;;;;;;;;;;;;;;;;;;5067380;28;19977;-52
2022/12/15 03:44:28;;;;;;;;;;;;;;;;;;5067592;28;20382;-53
2022/12/15 03:46:54;;;;;;;;;;;;;;;;;;5068049;28;19964;-53
2022/12/15 03:49:20;;;;;;;;;;;;;;;;;;5067642;28;20064;-51
2022/12/15 03:51:46;;;;;;;;;;;;;;;;;;5066060;28;20027;-48
2022/12/15 03:54:12;;;;;;;;;;;;;;;;;;5063676;28;20037;-53
2022/12/15 03:56:38;;;;;;;;;;;;;;;;;;5066555;28;19924;-50
2022/12/15 03:59:04;;;;;;;;;;;;;;;;;;5066294;28;19924;-53
2022/12/15 04:01:30;;;;;;;;;;;;;;;;;;5066980;28;19951;-49
2022/12/15 04:03:56;;;;;;;;;;;;;;;;;;5066756;28;19932;-52
2022/12/15 04:06:22;;;;;;;;;;;;;;;;;;5066269;28;19931;-51
2022/12/15 04:08:48;;;;;;;;;;;;;;;;;;5066678;28;19925;-52
2022/12/15 04:11:14;;;;;;;;;;;;;;;;;;5067004;28;19949;-48
2022/12/15 04:13:40;;;;;;;;;;;;;;;;;;5066701;28;19978;-50
2022/12/15 04:16:06;;;;;;;;;;;;;;;;;;5065718;28;20369;-50
2022/12/15 04:18:32;;;;;;;;;;;;;;;;;;5066568;28;19932;-54
2022/12/15 04:20:58;;;;;;;;;;;;;;;;;;5066621;28;19928;-51
2022/12/15 04:23:24;;;;;;;;;;;;;;;;;;5066178;28;20518;-49
2022/12/15 05:31:47;;;;;;;;;;;;;;;;;;5064541;28;20025;-48
2022/12/15 05:34:13;;;;;;;;;;;;;;;;;;5063879;28;20398;-57
2022/12/15 05:36:39;;;;;;;;;;;;;;;;;;5064259;28;19931;-51
2022/12/15 05:39:05;;;;;;;;;;;;;;;;;;5065076;28;19925;-55
2022/12/15 05:41:31;;;;;;;;;;;;;;;;;;5064554;28;19963;-47
2022/12/15 05:43:57;;;;;;;;;;;;;;;;;;5063594;28;19934;-53
2022/12/15 05:46:23;;;;;;;;;;;;;;;;;;5065226;28;19924;-56
2022/12/15 05:48:49;;;;;;;;;;;;;;;;;;5064941;28;20049;-51
2022/12/15 05:51:15;;;;;;;;;;;;;;;;;;5064430;28;20049;-47
2022/12/15 05:53:41;;;;;;;;;;;;;;;;;;5064725;28;20015;-51
2022/12/15 05:56:07;;;;;;;;;;;;;;;;;;5065684;28;19921;-54
2022/12/15 05:58:33;;;;;;;;;;;;;;;;;;5064654;28;20283;-51
2022/12/15 06:00:59;;;;;;;;;;;;;;;;;;5065128;28;19924;-54
2022/12/15 06:03:25;;;;;;;;;;;;;;;;;;5066119;28;19970;-51
2022/12/15 06:05:51;;;;;;;;;;;;;;;;;;5064295;28;20326;-54
2022/12/15 06:08:17;;;;;;;;;;;;;;;;;;5065256;28;19943;-50
2022/12/15 06:10:43;;;;;;;;;;;;;;;;;;5064966;28;19925;-50
2022/12/15 06:13:09;;;;;;;;;;;;;;;;;;5065343;28;19925;-48
2022/12/15 06:15:35;;;;;;;;;;;;;;;;;;5065400;28;20294;-56
2022/12/15 06:18:01;;;;;;;;;;;;;;;;;;5064668;28;20661;-51
2022/12/15 06:20:27;;;;;;;;;;;;;;;;;;5064867;28;19925;-51
2022/12/15 06:22:53;;;;;;;;;;;;;;;;;;5065660;28;20358;-51
2022/12/15 06:25:19;;;;;;;;;;;;;;;;;;5063007;28;20695;-51
2022/12/15 06:42:48;;;;;;;;;;;;;;;;;;5067063;28;19927;-51
2022/12/15 07:33:35;;;;;;;;;;;;;;;;;;5064503;28;19919;-56
2022/12/15 07:36:01;;;;;;;;;;;;;;;;;;5067065;28;19929;-52
2022/12/15 07:38:27;;;;;;;;;;;;;;;;;;5067201;28;21642;-52
2022/12/15 07:40:53;;;;;;;;;;;;;;;;;;5067398;28;19979;-50
2022/12/15 07:43:20;;;;;;;;;;;;;;;;;;5067267;28;19928;-51
2022/12/15 07:45:46;;;;;;;;;;;;;;;;;;5067833;28;19924;-48
2022/12/15 07:48:12;;;;;;;;;;;;;;;;;;5067563;28;19981;-51
2022/12/15 07:50:38;;;;;;;;;;;;;;;;;;5066807;28;19924;-51
2022/12/15 07:53:04;;;;;;;;;;;;;;;;;;5068012;28;19924;-51
2022/12/15 07:55:31;;;;;;;;;;;;;;;;;;5067027;28;19928;-55
2022/12/15 07:57:57;;;;;;;;;;;;;;;;;;5067804;28;20393;-50
2022/12/15 08:00:23;;;;;;;;;;;;;;;;;;5067748;28;19932;-48
2022/12/15 08:02:49;;;;;;;;;;;;;;;;;;5067406;28;19978;-50
2022/12/15 08:05:15;;;;;;;;;;;;;;;;;;5065992;28;20011;-50
2022/12/15 08:07:41;;;;;;;;;;;;;;;;;;5067358;28;20627;-49
2022/12/15 08:10:07;;;;;;;;;;;;;;;;;;5067508;28;19931;-48
2022/12/15 08:12:33;;;;;;;;;;;;;;;;;;5067306;28;19924;-56
2022/12/15 08:14:59;;;;;;;;;;;;;;;;;;5067501;28;19924;-52
2022/12/15 08:17:25;;;;;;;;;;;;;;;;;;5067793;28;19925;-54
2022/12/15 08:19:51;;;;;;;;;;;;;;;;;;5066495;28;19929;-48
2022/12/15 08:22:17;;;;;;;;;;;;;;;;;;5067049;28;19932;-51
2022/12/15 08:24:43;;;;;;;;;;;;;;;;;;5067159;28;19978;-50
2022/12/15 08:27:09;;;;;;;;;;;;;;;;;;5067180;28;19925;-53
2022/12/15 08:29:35;;;;;;;;;;;;;;;;;;5066834;28;20428;-49
2022/12/15 08:32:01;;;;;;;;;;;;;;;;;;5066920;28;19967;-55
2022/12/15 08:34:27;;;;;;;;;;;;;;;;;;5066356;28;20015;-50
2022/12/15 08:36:53;;;;;;;;;;;;;;;;;;5065266;28;19931;-51
2022/12/15 08:39:19;;;;;;;;;;;;;;;;;;5067329;28;19970;-51
2022/12/15 08:41:45;;;;;;;;;;;;;;;;;;5066212;28;19924;-48
2022/12/15 08:44:11;;;;;;;;;;;;;;;;;;5066835;28;19970;-53
2022/12/15 08:46:37;;;;;;;;;;;;;;;;;;5066034;28;19928;-54
2022/12/15 08:49:03;;;;;;;;;;;;;;;;;;5066149;28;19925;-53
2022/12/15 08:51:29;;;;;;;;;;;;;;;;;;5066759;28;19924;-52
2022/12/15 08:53:55;;;;;;;;;;;;;;;;;;5066373;28;19927;-49
2022/12/15 08:56:21;;;;;;;;;;;;;;;;;;5066774;28;20027;-51
2022/12/15 08:58:47;;;;;;;;;;;;;;;;;;5066430;28;20007;-52
2022/12/15 09:01:13;;;;;;;;;;;;;;;;;;5066134;28;20312;-50
2022/12/15 09:03:39;;;;;;;;;;;;;;;;;;5066533;28;20470;-49
2022/12/15 09:06:05;;;;;;;;;;;;;;;;;;5065759;28;19924;-52
2022/12/15 09:08:31;;;;;;;;;;;;;;;;;;5066492;28;19950;-51
2022/12/15 09:10:57;;;;;;;;;;;;;;;;;;5066435;28;19932;-54
2022/12/15 09:13:23;;;;;;;;;;;;;;;;;;5064686;28;20390;-56
2022/12/15 09:15:49;;;;;;;;;;;;;;;;;;5065445;28;19981;-51
2022/12/15 09:18:15;;;;;;;;;;;;;;;;;;5065320;28;19920;-52
2022/12/15 09:20:41;;;;;;;;;;;;;;;;;;5065165;28;19935;-51
2022/12/15 09:23:07;;;;;;;;;;;;;;;;;;5065906;28;19933;-50
2022/12/15 09:25:33;;;;;;;;;;;;;;;;;;5066311;28;19978;-52
2022/12/15 09:27:59;;;;;;;;;;;;;;;;;;5065378;28;19924;-51
2022/12/15 09:30:25;;;;;;;;;;;;;;;;;;5066125;28;19931;-51
2022/12/15 09:32:51;;;;;;;;;;;;;;;;;;5065156;28;19928;-50
2022/12/15 09:35:19;;;;;;;;;;;;;;;;;;5065633;28;19924;-48
2022/12/15 09:37:45;;;;;;;;;;;;;;;;;;5065880;28;19958;-51
2022/12/15 09:40:11;;;;;;;;;;;;;;;;;;5066045;28;20017;-56
2022/12/15 09:42:37;;;;;;;;;;;;;;;;;;5065510;28;20114;-50
2022/12/15 09:45:03;;;;;;;;;;;;;;;;;;5065786;28;19924;-49
2022/12/15 09:47:29;;;;;;;;;;;;;;;;;;5066219;28;19924;-50
2022/12/15 09:49:55;;;;;;;;;;;;;;;;;;5065071;28;19932;-50
2022/12/15 09:52:21;;;;;;;;;;;;;;;;;;5065764;28;19954;-49
2022/12/15 09:54:47;;;;;;;;;;;;;;;;;;5065688;28;19981;-46
2022/12/15 09:57:13;;;;;;;;;;;;;;;;;;5068989;28;19924;-46
2022/12/15 09:59:40;;;;;;;;;;;;;;;;;;5069810;28;19932;-48
2022/12/15 10:02:06;;;;;;;;;;;;;;;;;;5069696;28;19975;-53
2022/12/15 10:04:32;;;;;;;;;;;;;;;;;;5069308;28;19967;-45
2022/12/15 10:06:58;;;;;;;;;;;;;;;;;;5069864;28;20378;-48
2022/12/15 10:09:26;;;;;;;;;;;;;;;;;;5070372;28;20019;-48
2022/12/15 10:11:52;;;;;;;;;;;;;;;;;;5069060;28;20346;-51
2022/12/15 10:14:18;;;;;;;;;;;;;;;;;;5069841;28;20007;-47
2022/12/15 10:16:44;;;;;;;;;;;;;;;;;;5069553;28;19970;-50
2022/12/15 10:19:10;;;;;;;;;;;;;;;;;;5069118;28;19924;-53
2022/12/15 10:21:36;;;;;;;;;;;;;;;;;;5068836;28;19925;-52
2022/12/15 10:24:02;;;;;;;;;;;;;;;;;;5069689;28;20632;-48
2022/12/15 10:26:28;;;;;;;;;;;;;;;;;;5069786;28;19925;-48
2022/12/15 10:28:57;;;;;;;;;;;;;;;;;;5069676;28;19928;-49
2022/12/15 10:31:24;;;;;;;;;;;;;;;;;;5069391;28;19943;-52
2022/12/15 10:33:50;;;;;;;;;;;;;;;;;;5068834;28;19924;-50
2022/12/15 10:36:16;;;;;;;;;;;;;;;;;;5069314;28;19932;-44
2022/12/15 10:38:44;;;;;;;;;;;;;;;;;;5068808;28;20394;-44
2022/12/15 10:41:10;;;;;;;;;;;;;;;;;;5069048;28;19970;-49
2022/12/15 10:43:36;;;;;;;;;;;;;;;;;;5069101;28;20491;-48
2022/12/15 10:46:02;;;;;;;;;;;;;;;;;;5069531;28;20398;-45
2022/12/15 10:48:28;;;;;;;;;;;;;;;;;;5068698;28;19931;-53
2022/12/15 10:50:54;;;;;;;;;;;;;;;;;;5068429;28;19925;-44
2022/12/15 10:53:20;;;;;;;;;;;;;;;;;;5068926;28;19947;-46
2022/12/15 10:55:46;;;;;;;;;;;;;;;;;;5069078;28;19956;-44
2022/12/15 10:58:12;;;;;;;;;;;;;;;;;;5069323;28;19928;-45
2022/12/15 11:00:38;;;;;;;;;;;;;;;;;;5068700;28;20003;-47
2022/12/15 11:03:04;;;;;;;;;;;;;;;;;;5069019;28;20394;-44
2022/12/15 11:05:32;;;;;;;;;;;;;;;;;;5068230;28;19924;-47
2022/12/15 11:07:58;;;;;;;;;;;;;;;;;;5067736;28;19942;-55
2022/12/15 11:10:24;;;;;;;;;;;;;;;;;;5068435;28;20382;-50
2022/12/15 11:12:50;;;;;;;;;;;;;;;;;;5068265;28;20333;-52
2022/12/15 11:15:16;;;;;;;;;;;;;;;;;;5068936;28;20398;-47
2022/12/15 11:17:44;;;;;;;;;;;;;;;;;;5067670;28;21342;-49
2022/12/15 11:20:10;;;;;;;;;;;;;;;;;;5067405;28;19928;-50
2022/12/15 11:22:36;;;;;;;;;;;;;;;;;;5068119;28;19930;-57
2022/12/15 11:25:02;;;;;;;;;;;;;;;;;;5068815;28;19935;-51
2022/12/15 11:27:28;;;;;;;;;;;;;;;;;;5068116;28;19925;-48
2022/12/15 11:29:54;;;;;;;;;;;;;;;;;;5068755;28;19978;-49
2022/12/15 11:32:20;;;;;;;;;;;;;;;;;;5068470;28;19920;-54
2022/12/15 11:34:46;;;;;;;;;;;;;;;;;;5067180;28;19943;-48
2022/12/15 11:37:12;;;;;;;;;;;;;;;;;;5068384;28;20015;-50
2022/12/15 11:39:38;;;;;;;;;;;;;;;;;;5067723;28;20331;-49
2022/12/15 11:42:04;;;;;;;;;;;;;;;;;;5068008;28;19924;-51
2022/12/15 11:44:30;;;;;;;;;;;;;;;;;;5067281;28;19924;-48
2022/12/15 11:46:56;;;;;;;;;;;;;;;;;;5067396;28;19924;-51
2022/12/15 11:49:22;;;;;;;;;;;;;;;;;;5067436;28;19931;-48
2022/12/15 11:51:48;;;;;;;;;;;;;;;;;;5049348;28;20362;-52
2022/12/15 11:54:15;;;;;;;;;;;;;;;;;;5059068;28;20043;-51
2022/12/15 11:56:41;;;;;;;;;;;;;;;;;;5058280;28;19962;-48
2022/12/15 11:59:07;;;;;;;;;;;;;;;;;;5065550;28;19940;-57
2022/12/15 12:01:33;;;;;;;;;;;;;;;;;;5063291;28;20350;-50
2022/12/15 12:03:59;;;;;;;;;;;;;;;;;;5064169;28;19928;-50
2022/12/15 12:06:25;;;;;;;;;;;;;;;;;;5064513;28;20438;-53
2022/12/15 12:08:51;;;;;;;;;;;;;;;;;;5064658;28;19928;-50
2022/12/15 12:11:17;;;;;;;;;;;;;;;;;;5063526;28;19928;-55
2022/12/15 12:13:43;;;;;;;;;;;;;;;;;;5063246;28;19935;-54
2022/12/15 12:16:09;;;;;;;;;;;;;;;;;;5064653;28;19924;-53
2022/12/15 12:18:35;;;;;;;;;;;;;;;;;;5062908;28;20597;-50
2022/12/15 12:21:01;;;;;;;;;;;;;;;;;;5064095;28;19935;-50
2022/12/15 12:23:27;;;;;;;;;;;;;;;;;;5063825;28;19971;-51
2022/12/15 12:25:53;;;;;;;;;;;;;;;;;;5064509;28;19983;-50
2022/12/15 12:28:19;;;;;;;;;;;;;;;;;;5063403;28;19928;-50
2022/12/15 12:30:45;;;;;;;;;;;;;;;;;;5056836;28;19928;-51
2022/12/15 12:33:12;;;;;;;;;;;;;;;;;;5064590;28;19924;-48
2022/12/15 12:35:38;;;;;;;;;;;;;;;;;;5063272;28;19975;-58
2022/12/15 12:38:04;;;;;;;;;;;;;;;;;;5064820;28;20580;-51
2022/12/15 12:40:30;;;;;;;;;;;;;;;;;;5062456;28;19973;-51
2022/12/15 12:42:56;;;;;;;;;;;;;;;;;;5055686;28;20287;-50
2022/12/15 12:45:22;;;;;;;;;;;;;;;;;;5063680;28;19935;-52
2022/12/15 12:47:49;;;;;;;;;;;;;;;;;;5061839;28;19964;-53
2022/12/15 12:50:15;;;;;;;;;;;;;;;;;;5051640;28;19928;-54
2022/12/15 12:52:41;;;;;;;;;;;;;;;;;;5063260;28;20571;-51
2022/12/15 12:55:07;;;;;;;;;;;;;;;;;;5063058;28;19928;-53
2022/12/15 12:57:33;;;;;;;;;;;;;;;;;;5062656;28;20317;-53
2022/12/15 12:59:59;;;;;;;;;;;;;;;;;;5057185;28;20491;-54
2022/12/15 13:02:25;;;;;;;;;;;;;;;;;;5061392;28;19978;-50
2022/12/15 13:04:51;;;;;;;;;;;;;;;;;;5060560;28;19932;-56
2022/12/15 13:07:17;;;;;;;;;;;;;;;;;;5061836;28;19970;-53
2022/12/15 13:09:43;;;;;;;;;;;;;;;;;;5062745;28;20227;-51
2022/12/15 13:12:09;;;;;;;;;;;;;;;;;;5059714;28;19978;-56
2022/12/15 13:14:36;;;;;;;;;;;;;;;;;;5061603;28;19985;-51
2022/12/15 13:17:02;;;;;;;;;;;;;;;;;;5061309;28;19924;-51
2022/12/15 13:19:28;;;;;;;;;;;;;;;;;;5062620;28;19933;-51
2022/12/15 13:21:54;;;;;;;;;;;;;;;;;;5060890;28;19932;-54
2022/12/15 13:24:20;;;;;;;;;;;;;;;;;;5062875;28;20470;-52
2022/12/15 13:26:46;;;;;;;;;;;;;;;;;;5062167;28;19935;-49
2022/12/15 13:29:12;;;;;;;;;;;;;;;;;;5062285;28;19932;-54
2022/12/15 13:31:38;;;;;;;;;;;;;;;;;;5062219;28;19925;-50
2022/12/15 13:34:04;;;;;;;;;;;;;;;;;;5061915;28;19932;-51
2022/12/15 13:36:30;;;;;;;;;;;;;;;;;;5062859;28;19921;-49
2022/12/15 13:38:56;;;;;;;;;;;;;;;;;;5062786;28;20374;-50
2022/12/15 13:41:22;;;;;;;;;;;;;;;;;;5060263;28;20031;-51
2022/12/15 13:43:48;;;;;;;;;;;;;;;;;;5060592;28;19924;-52
2022/12/15 13:46:15;;;;;;;;;;;;;;;;;;5061808;28;19924;-52
2022/12/15 13:48:41;;;;;;;;;;;;;;;;;;5060997;28;19943;-48
2022/12/15 13:51:08;;;;;;;;;;;;;;;;;;5061186;28;20045;-50
2022/12/15 13:53:34;;;;;;;;;;;;;;;;;;5061370;28;19927;-54
2022/12/15 13:56:00;;;;;;;;;;;;;;;;;;5059761;28;19924;-49
2022/12/15 13:58:26;;;;;;;;;;;;;;;;;;5062504;28;19931;-50
2022/12/15 14:00:52;;;;;;;;;;;;;;;;;;5059812;28;19955;-47
2022/12/15 14:03:18;;;;;;;;;;;;;;;;;;5062139;28;20378;-51
2022/12/15 14:05:44;;;;;;;;;;;;;;;;;;5061414;28;19935;-51
2022/12/15 14:08:10;;;;;;;;;;;;;;;;;;5062741;28;19932;-49
2022/12/15 14:10:37;;;;;;;;;;;;;;;;;;5061289;28;20401;-47
2022/12/15 14:13:03;;;;;;;;;;;;;;;;;;5062132;28;20615;-54
2022/12/15 14:15:29;;;;;;;;;;;;;;;;;;5061864;28;19940;-53
2022/12/15 14:17:55;;;;;;;;;;;;;;;;;;5062664;28;19939;-48
2022/12/15 14:20:21;;;;;;;;;;;;;;;;;;5060253;28;19944;-51
2022/12/15 14:22:49;;;;;;;;;;;;;;;;;;5062193;28;19948;-47
2022/12/15 14:25:15;;;;;;;;;;;;;;;;;;5061898;28;20442;-50
2022/12/15 14:27:41;;;;;;;;;;;;;;;;;;5061165;28;20012;-47
2022/12/15 14:30:07;;;;;;;;;;;;;;;;;;5061572;28;20014;-51
2022/12/15 14:32:34;;;;;;;;;;;;;;;;;;5059726;28;20324;-48
2022/12/15 14:35:00;;;;;;;;;;;;;;;;;;5061334;28;21345;-49
2022/12/15 14:37:26;;;;;;;;;;;;;;;;;;5061451;28;20417;-53
2022/12/15 14:39:52;;;;;;;;;;;;;;;;;;5061489;28;19924;-48
2022/12/15 14:42:18;;;;;;;;;;;;;;;;;;5061915;28;19939;-54
2022/12/15 14:44:45;;;;;;;;;;;;;;;;;;5064387;28;19925;-51
2022/12/15 14:47:11;;;;;;;;;;;;;;;;;;5066280;28;20278;-49
2022/12/15 14:49:37;;;;;;;;;;;;;;;;;;5063585;28;20515;-51
2022/12/15 14:52:03;;;;;;;;;;;;;;;;;;5065334;28;19963;-48
2022/12/15 14:54:29;;;;;;;;;;;;;;;;;;5065348;28;20003;-50
2022/12/15 14:56:55;;;;;;;;;;;;;;;;;;5064042;28;20433;-48
2022/12/15 14:59:21;;;;;;;;;;;;;;;;;;5064573;28;19932;-53
2022/12/15 15:01:48;;;;;;;;;;;;;;;;;;5064675;28;19932;-56
2022/12/15 15:04:14;;;;;;;;;;;;;;;;;;5064619;28;19924;-55
2022/12/15 15:06:40;;;;;;;;;;;;;;;;;;5066370;28;19920;-54
2022/12/15 15:09:06;;;;;;;;;;;;;;;;;;5066185;28;19924;-48
2022/12/15 15:11:32;;;;;;;;;;;;;;;;;;5065392;28;19939;-51
2022/12/15 15:13:58;;;;;;;;;;;;;;;;;;5065885;28;19929;-48
2022/12/15 15:16:24;;;;;;;;;;;;;;;;;;5066481;28;19990;-54
2022/12/15 15:18:50;;;;;;;;;;;;;;;;;;5064897;28;20327;-53
2022/12/15 15:21:16;;;;;;;;;;;;;;;;;;5063480;28;20410;-52
2022/12/15 15:23:42;;;;;;;;;;;;;;;;;;5065254;28;19932;-56
2022/12/15 15:26:09;;;;;;;;;;;;;;;;;;5064117;28;19929;-47
2022/12/15 15:28:35;;;;;;;;;;;;;;;;;;5065406;28;19940;-50
2022/12/15 15:31:05;;;;;;;;;;;;;;;;;;5064743;28;19924;-47
2022/12/15 15:33:31;;;;;;;;;;;;;;;;;;5064870;28;19932;-48
2022/12/15 15:35:57;;;;;;;;;;;;;;;;;;5065047;28;19948;-53
2022/12/15 15:38:23;;;;;;;;;;;;;;;;;;5060394;28;19928;-51
2022/12/15 15:40:49;;;;;;;;;;;;;;;;;;5058376;28;20328;-50
2022/12/15 15:43:18;;;;;;;;;;;;;;;;;;5056142;28;19928;-55
2022/12/15 15:45:44;;;;;;;;;;;;;;;;;;5059748;28;20143;-53
2022/12/15 15:48:10;;;;;;;;;;;;;;;;;;5059311;28;20590;-54
2022/12/15 15:50:36;;;;;;;;;;;;;;;;;;5057434;28;20038;-49
2022/12/15 15:53:02;;;;;;;;;;;;;;;;;;5057737;28;19932;-49
2022/12/15 15:55:29;;;;;;;;;;;;;;;;;;5062639;28;20297;-50
2022/12/15 15:57:55;;;;;;;;;;;;;;;;;;5064229;28;19986;-51
2022/12/15 16:00:22;;;;;;;;;;;;;;;;;;5064933;28;20441;-53
2022/12/15 16:02:48;;;;;;;;;;;;;;;;;;5063524;28;19928;-48
2022/12/15 16:05:14;;;;;;;;;;;;;;;;;;5065601;28;19931;-55
2022/12/15 16:07:40;;;;;;;;;;;;;;;;;;5062391;28;19939;-51
2022/12/15 16:10:06;;;;;;;;;;;;;;;;;;5064610;28;19932;-50
2022/12/15 16:12:32;;;;;;;;;;;;;;;;;;5064190;28;19982;-49
2022/12/15 16:14:58;;;;;;;;;;;;;;;;;;5065408;28;19927;-48
2022/12/15 16:17:24;;;;;;;;;;;;;;;;;;5065027;28;19925;-54
2022/12/15 16:19:52;;;;;;;;;;;;;;;;;;5059962;28;19924;-51
2022/12/15 16:22:18;;;;;;;;;;;;;;;;;;5062551;28;19984;-47
2022/12/15 16:24:44;;;;;;;;;;;;;;;;;;5063910;28;19932;-53
2022/12/15 16:27:10;;;;;;;;;;;;;;;;;;5063835;28;20054;-53
2022/12/15 16:29:37;;;;;;;;;;;;;;;;;;5064073;28;20596;-52
2022/12/15 16:32:03;;;;;;;;;;;;;;;;;;5057757;28;20409;-51
2022/12/15 16:34:29;;;;;;;;;;;;;;;;;;5053955;28;19925;-57
2022/12/15 16:36:54;;;;;;;;;;;;;;;;;;5055908;28;19924;-52
2022/12/15 16:39:21;;;;;;;;;;;;;;;;;;5057267;28;19933;-53
2022/12/15 16:41:47;;;;;;;;;;;;;;;;;;5050976;28;20452;-50
2022/12/15 16:44:13;;;;;;;;;;;;;;;;;;5052454;28;19929;-47
2022/12/15 16:46:39;;;;;;;;;;;;;;;;;;5055674;28;19925;-51
2022/12/15 16:49:05;;;;;;;;;;;;;;;;;;5061791;28;20033;-55
2022/12/15 16:51:31;;;;;;;;;;;;;;;;;;5066575;28;20393;-52
2022/12/15 16:53:57;;;;;;;;;;;;;;;;;;5059910;28;19931;-55
2022/12/15 16:56:23;;;;;;;;;;;;;;;;;;5062099;28;19925;-49
2022/12/15 16:58:49;;;;;;;;;;;;;;;;;;5064762;28;20404;-51
2022/12/15 17:01:15;;;;;;;;;;;;;;;;;;5067515;28;19924;-52
2022/12/15 17:03:41;;;;;;;;;;;;;;;;;;5066398;28;19952;-54
2022/12/15 17:06:07;;;;;;;;;;;;;;;;;;5063532;28;20508;-49
2022/12/15 17:08:33;;;;;;;;;;;;;;;;;;5065440;28;20054;-47
2022/12/15 17:11:00;;;;;;;;;;;;;;;;;;5051515;28;20043;-54
2022/12/15 17:13:26;;;;;;;;;;;;;;;;;;5051572;28;19951;-51
2022/12/15 17:15:53;;;;;;;;;;;;;;;;;;5050609;28;19940;-52
2022/12/15 17:18:19;;;;;;;;;;;;;;;;;;5055402;28;19929;-54
2022/12/15 17:20:45;;;;;;;;;;;;;;;;;;5059742;28;19924;-48
2022/12/15 17:23:11;;;;;;;;;;;;;;;;;;5051644;28;19987;-51
2022/12/15 17:25:37;;;;;;;;;;;;;;;;;;5055949;28;20358;-48
2022/12/15 17:28:03;;;;;;;;;;;;;;;;;;5054176;28;19932;-47
2022/12/15 17:30:29;;;;;;;;;;;;;;;;;;5048591;28;19975;-56
2022/12/15 17:32:55;;;;;;;;;;;;;;;;;;5049878;28;20294;-49
2022/12/15 17:35:21;;;;;;;;;;;;;;;;;;5048674;28;20375;-55
2022/12/15 17:37:47;;;;;;;;;;;;;;;;;;5055977;28;19925;-47
2022/12/15 17:40:13;;;;;;;;;;;;;;;;;;5046461;28;19921;-49
2022/12/15 17:42:39;;;;;;;;;;;;;;;;;;5049295;28;19929;-47
2022/12/15 17:45:05;;;;;;;;;;;;;;;;;;5047944;28;20002;-50
2022/12/15 17:47:31;;;;;;;;;;;;;;;;;;5047766;28;20474;-47
2022/12/15 17:49:58;;;;;;;;;;;;;;;;;;5049343;28;19925;-51
2022/12/15 17:52:24;;;;;;;;;;;;;;;;;;5045391;28;19920;-46
2022/12/15 17:54:50;;;;;;;;;;;;;;;;;;5051797;28;20336;-56
2022/12/15 17:57:16;;;;;;;;;;;;;;;;;;5048684;28;19984;-52
2022/12/15 17:59:42;;;;;;;;;;;;;;;;;;5058317;28;20701;-48
2022/12/15 18:02:08;;;;;;;;;;;;;;;;;;5065579;28;20420;-54
2022/12/15 18:04:34;;;;;;;;;;;;;;;;;;5064334;28;19928;-47
2022/12/15 18:07:00;;;;;;;;;;;;;;;;;;5061875;28;19924;-52
2022/12/15 18:09:26;;;;;;;;;;;;;;;;;;5064988;28;19947;-51
2022/12/15 18:11:52;;;;;;;;;;;;;;;;;;5064006;28;20005;-47
2022/12/15 18:14:18;;;;;;;;;;;;;;;;;;5066399;28;19946;-47
2022/12/15 18:16:44;;;;;;;;;;;;;;;;;;5066633;28;20328;-50
2022/12/15 18:19:10;;;;;;;;;;;;;;;;;;5069009;28;19928;-51
2022/12/15 18:21:36;;;;;;;;;;;;;;;;;;5069506;28;19928;-48
2022/12/15 18:24:02;;;;;;;;;;;;;;;;;;5069130;28;19975;-49
2022/12/15 18:26:30;;;;;;;;;;;;;;;;;;5068556;28;19979;-48
2022/12/15 18:28:56;;;;;;;;;;;;;;;;;;5069211;28;19924;-52
2022/12/15 18:31:22;;;;;;;;;;;;;;;;;;5064692;28;19974;-50
2022/12/15 18:33:48;;;;;;;;;;;;;;;;;;5062601;28;19929;-49
2022/12/15 18:36:15;;;;;;;;;;;;;;;;;;5053516;28;19925;-47
2022/12/15 18:38:41;;;;;;;;;;;;;;;;;;5066262;28;19953;-55
2022/12/15 18:41:07;;;;;;;;;;;;;;;;;;5066114;28;19925;-47
2022/12/15 18:43:33;;;;;;;;;;;;;;;;;;5065034;28;20471;-52
2022/12/15 18:45:59;;;;;;;;;;;;;;;;;;5065735;28;19931;-51
2022/12/15 18:48:25;;;;;;;;;;;;;;;;;;5065889;28;19927;-52
2022/12/15 18:50:51;;;;;;;;;;;;;;;;;;5065010;28;20422;-55
2022/12/15 18:53:18;;;;;;;;;;;;;;;;;;5066311;28;19927;-49
2022/12/15 18:55:44;;;;;;;;;;;;;;;;;;5064891;28;20378;-50
2022/12/15 18:58:10;;;;;;;;;;;;;;;;;;5065645;28;19932;-49
2022/12/15 19:00:38;;;;;;;;;;;;;;;;;;5064854;28;19930;-54
2022/12/15 19:03:04;;;;;;;;;;;;;;;;;;5065038;28;19991;-47
2022/12/15 19:05:33;;;;;;;;;;;;;;;;;;5065608;28;20007;-55
2022/12/15 19:07:59;;;;;;;;;;;;;;;;;;5063742;28;20481;-51
2022/12/15 19:10:25;;;;;;;;;;;;;;;;;;5065291;28;19982;-50
2022/12/15 19:12:51;;;;;;;;;;;;;;;;;;5066012;28;20656;-49
2022/12/15 19:15:17;;;;;;;;;;;;;;;;;;5063452;28;20009;-51
2022/12/15 19:23:13;;;;;;;;;;;;;;;;;;5065491;28;20496;-51
2022/12/15 19:25:39;;;;;;;;;;;;;;;;;;5065668;28;20480;-47
2022/12/15 19:28:05;;;;;;;;;;;;;;;;;;5055276;28;20050;-51
2022/12/15 19:30:31;;;;;;;;;;;;;;;;;;5061853;28;20031;-56
2022/12/15 19:32:57;;;;;;;;;;;;;;;;;;5064701;28;19921;-51
2022/12/15 19:35:24;;;;;;;;;;;;;;;;;;5064616;28;20383;-50
2022/12/15 19:37:50;;;;;;;;;;;;;;;;;;5066342;28;20414;-47
2022/12/15 19:40:16;;;;;;;;;;;;;;;;;;5065884;28;20298;-47
2022/12/15 19:42:43;;;;;;;;;;;;;;;;;;5064804;28;19935;-54
2022/12/15 19:45:09;;;;;;;;;;;;;;;;;;5062655;28;19924;-50
2022/12/15 19:47:35;;;;;;;;;;;;;;;;;;5063867;28;19925;-49
2022/12/15 19:50:04;;;;;;;;;;;;;;;;;;5064747;28;19932;-51
2022/12/15 19:52:30;;;;;;;;;;;;;;;;;;5064791;28;20015;-50
2022/12/15 19:54:56;;;;;;;;;;;;;;;;;;5064267;28;20301;-52
2022/12/15 19:57:22;;;;;;;;;;;;;;;;;;5065820;28;19936;-48
2022/12/15 19:59:48;;;;;;;;;;;;;;;;;;5061874;28;19932;-49
2022/12/15 20:02:14;;;;;;;;;;;;;;;;;;5063992;28;19928;-48
2022/12/15 20:04:40;;;;;;;;;;;;;;;;;;5064743;28;19936;-53
2022/12/15 20:07:06;;;;;;;;;;;;;;;;;;5064714;28;20027;-52
2022/12/15 20:09:32;;;;;;;;;;;;;;;;;;5064717;28;20622;-48